Time;durP1;ratioP1;P1;durP2;ratioP2;P2;SDS_P1;SDS_P2;PMS_P1;PMS_P2;Temp;Humidity;BMP_temperature;BMP_pressure;BME280_temperature;BME280_humidity;BME280_pressure;Samples;Min_cycle;Max_cycle;Signal;HPM_P1;HPM_P2
2022/12/03 00:01:58;;;;;;;1.63;1.50;;;2.60;98.20;;;;;;4978979;28;20477;-77
2022/12/03 00:04:26;;;;;;;1.70;1.50;;;2.60;98.20;;;;;;4985722;28;20470;-75
2022/12/03 00:06:53;;;;;;;1.70;1.50;;;2.70;98.20;;;;;;4981411;28;20484;-75
2022/12/03 00:09:20;;;;;;;1.67;1.47;;;2.70;98.20;;;;;;4985836;28;20469;-76
2022/12/03 00:11:47;;;;;;;1.70;1.60;;;2.70;98.20;;;;;;4978505;28;21032;-76
2022/12/03 00:14:13;;;;;;;1.70;1.50;;;2.70;98.20;;;;;;4985665;28;20462;-75
2022/12/03 00:16:40;;;;;;;1.67;1.40;;;2.70;98.20;;;;;;4978457;28;20479;-76
2022/12/03 00:19:07;;;;;;;2.33;2.13;;;2.70;98.20;;;;;;4985808;28;20470;-76
2022/12/03 00:21:35;;;;;;;1.70;1.50;;;2.70;98.20;;;;;;4979952;28;20479;-77
2022/12/03 00:24:02;;;;;;;1.63;1.50;;;2.70;98.20;;;;;;4986472;28;20466;-75
2022/12/03 00:26:29;;;;;;;1.70;1.50;;;2.70;98.20;;;;;;4976528;28;20487;-76
2022/12/03 00:28:56;;;;;;;1.67;1.40;;;2.70;98.20;;;;;;4987407;28;20462;-75
2022/12/03 00:31:23;;;;;;;1.70;1.60;;;2.70;98.20;;;;;;4977752;28;20484;-75
2022/12/03 00:33:50;;;;;;;1.70;1.40;;;2.70;98.20;;;;;;4988229;28;20469;-75
2022/12/03 00:36:17;;;;;;;1.67;1.43;;;2.70;98.20;;;;;;4976764;28;20953;-76
2022/12/03 00:38:46;;;;;;;1.70;1.50;;;2.70;98.20;;;;;;4989179;28;20976;-76
2022/12/03 00:41:13;;;;;;;2.73;2.57;;;2.70;98.20;;;;;;4974923;28;20784;-75
2022/12/03 00:43:39;;;;;;;1.60;1.40;;;2.70;98.20;;;;;;4989526;28;20465;-76
2022/12/03 00:46:07;;;;;;;2.90;2.70;;;2.80;98.20;;;;;;4971394;28;20864;-75
2022/12/03 00:48:33;;;;;;;1.67;1.50;;;2.70;98.20;;;;;;4993068;28;20463;-76
2022/12/03 00:51:00;;;;;;;1.70;1.50;;;2.70;98.20;;;;;;4968472;28;20458;-76
2022/12/03 00:53:27;;;;;;;1.70;1.50;;;2.80;98.20;;;;;;4992817;28;20457;-76
2022/12/03 00:55:56;;;;;;;1.70;1.60;;;2.80;98.20;;;;;;4967020;28;20873;-76
2022/12/03 00:58:22;;;;;;;1.63;1.50;;;2.80;98.20;;;;;;4990889;28;20500;-76
2022/12/03 01:00:49;;;;;;;1.70;1.50;;;2.80;98.20;;;;;;4973357;28;20552;-76
2022/12/03 01:03:16;;;;;;;1.70;1.50;;;2.80;98.20;;;;;;4996585;28;20545;-75
2022/12/03 01:05:43;;;;;;;1.70;1.50;;;2.80;98.20;;;;;;5024334;22;20493;-77
2022/12/03 01:08:10;;;;;;;1.70;1.50;;;2.80;98.20;;;;;;5025654;28;20480;-76
2022/12/03 01:10:37;;;;;;;1.67;1.50;;;2.80;98.20;;;;;;5017625;28;20804;-77
2022/12/03 01:13:05;;;;;;;1.70;1.43;;;2.80;98.20;;;;;;5022823;28;20482;-77
2022/12/03 01:15:31;;;;;;;1.70;1.50;;;2.80;98.20;;;;;;5021211;28;20455;-77
2022/12/03 01:17:58;;;;;;;1.73;1.63;;;2.80;98.20;;;;;;5000882;28;20866;-77
2022/12/03 01:20:25;;;;;;;1.70;1.50;;;2.90;98.20;;;;;;4996545;28;20469;-77
2022/12/03 01:22:52;;;;;;;1.70;1.50;;;2.90;98.20;;;;;;5003540;28;20530;-76
2022/12/03 01:25:19;;;;;;;1.70;1.50;;;2.90;98.20;;;;;;4996374;28;20473;-77
2022/12/03 01:27:45;;;;;;;1.67;1.50;;;2.90;98.20;;;;;;5004301;28;20560;-77
2022/12/03 01:30:14;;;;;;;1.70;1.40;;;2.90;98.20;;;;;;4997015;28;20472;-77
2022/12/03 01:32:40;;;;;;;3.23;2.97;;;2.90;98.20;;;;;;5004073;28;20501;-78
2022/12/03 01:35:07;;;;;;;1.63;1.40;;;2.90;98.20;;;;;;4996452;28;20877;-77
2022/12/03 01:37:34;;;;;;;1.70;1.50;;;3.00;98.20;;;;;;5004249;28;20224;-77
2022/12/03 01:40:01;;;;;;;1.70;1.57;;;3.00;98.20;;;;;;4998191;28;20465;-77
2022/12/03 01:42:30;;;;;;;1.63;1.40;;;3.00;98.20;;;;;;5002465;28;20492;-77
2022/12/03 01:44:58;;;;;;;1.70;1.60;;;3.00;98.20;;;;;;4998580;28;20468;-77
2022/12/03 01:47:29;;;;;;;1.70;1.40;;;3.00;98.20;;;;;;5003133;28;20476;-77
2022/12/03 01:50:01;;;;;;;1.70;1.57;;;3.00;98.20;;;;;;4998063;28;20461;-76
2022/12/03 01:52:35;;;;;;;1.67;1.40;;;3.00;98.20;;;;;;5001697;28;20484;-77
2022/12/03 01:55:06;;;;;;;1.70;1.50;;;3.00;98.20;;;;;;4995049;28;20848;-77
2022/12/03 01:57:37;;;;;;;1.70;1.50;;;3.00;98.20;;;;;;5003334;28;20479;-77
2022/12/03 02:00:05;;;;;;;1.70;1.50;;;3.00;98.20;;;;;;4996215;28;20465;-76
2022/12/03 02:02:34;;;;;;;1.70;1.60;;;3.00;98.20;;;;;;5002829;28;20491;-77
2022/12/03 02:05:05;;;;;;;1.70;1.40;;;3.00;98.20;;;;;;4994333;28;20465;-77
2022/12/03 02:07:33;;;;;;;1.70;1.60;;;3.00;98.20;;;;;;5002398;28;20834;-77
2022/12/03 02:10:02;;;;;;;1.63;1.40;;;3.00;98.20;;;;;;4982028;28;20855;-77
2022/12/03 02:12:33;;;;;;;1.70;1.60;;;3.10;98.20;;;;;;5005092;28;20482;-77
2022/12/03 02:15:00;;;;;;;1.67;1.53;;;3.10;98.20;;;;;;4990840;28;21032;-77
2022/12/03 02:17:28;;;;;;;1.67;1.47;;;3.10;98.20;;;;;;5006200;28;20490;-77
2022/12/03 02:19:56;;;;;;;1.70;1.40;;;3.10;98.20;;;;;;4992808;28;20457;-77
2022/12/03 02:22:34;;;;;;;1.67;1.40;;;3.10;98.20;;;;;;5004707;28;20491;-77
2022/12/03 02:25:14;;;;;;;1.70;1.50;;;3.10;98.20;;;;;;4992052;28;20461;-77
2022/12/03 02:27:41;;;;;;;1.70;1.50;;;3.10;98.20;;;;;;5011875;28;20482;-76
2022/12/03 02:30:12;;;;;;;2.43;2.23;;;3.10;98.20;;;;;;4991648;28;20464;-77
2022/12/03 02:32:38;;;;;;;1.63;1.40;;;3.10;98.20;;;;;;5008510;28;20934;-76
2022/12/03 02:35:06;;;;;;;1.70;1.50;;;3.10;98.20;;;;;;4992272;28;20476;-77
2022/12/03 02:37:36;;;;;;;1.67;1.40;;;3.10;98.20;;;;;;5009359;28;20475;-77
2022/12/03 02:40:06;;;;;;;1.67;1.40;;;3.10;98.20;;;;;;4990856;28;20829;-77
2022/12/03 02:42:33;;;;;;;1.70;1.40;;;3.10;98.20;;;;;;5005385;28;20490;-77
2022/12/03 02:45:02;;;;;;;1.70;1.50;;;3.10;98.20;;;;;;4992449;28;20461;-77
2022/12/03 02:47:30;;;;;;;1.70;1.50;;;3.10;98.20;;;;;;5008581;28;20482;-76
2022/12/03 02:49:58;;;;;;;1.70;1.50;;;3.10;98.20;;;;;;4992565;28;20570;-77
2022/12/03 02:52:26;;;;;;;1.63;1.40;;;3.10;98.20;;;;;;5005884;28;20855;-77
2022/12/03 02:54:53;;;;;;;1.70;1.50;;;3.10;98.20;;;;;;4993402;28;20459;-77
2022/12/03 02:57:20;;;;;;;1.70;1.47;;;3.10;98.20;;;;;;5007006;28;20482;-77
2022/12/03 02:59:48;;;;;;;1.70;1.50;;;3.10;98.20;;;;;;4994382;28;20844;-77
2022/12/03 03:02:15;;;;;;;1.63;1.40;;;3.10;98.20;;;;;;5002315;28;20483;-77
2022/12/03 03:04:43;;;;;;;1.60;1.40;;;3.10;98.20;;;;;;4996148;28;20457;-77
2022/12/03 03:07:10;;;;;;;1.67;1.50;;;3.10;98.20;;;;;;4469979;28;15046304;-76
2022/12/03 03:09:37;;;;;;;1.67;1.40;;;3.10;98.20;;;;;;4990980;28;20209;-77
2022/12/03 03:12:04;;;;;;;1.60;1.37;;;3.10;98.20;;;;;;5000143;28;20479;-77
2022/12/03 03:14:32;;;;;;;1.70;1.50;;;3.10;98.20;;;;;;5000301;28;20465;-77
2022/12/03 03:17:00;;;;;;;1.80;1.70;;;3.10;98.20;;;;;;4999097;28;20474;-77
2022/12/03 03:19:28;;;;;;;1.70;1.60;;;3.10;98.20;;;;;;5005492;28;20491;-78
2022/12/03 03:21:55;;;;;;;1.70;1.43;;;3.10;98.20;;;;;;4997990;28;20871;-78
2022/12/03 03:24:23;;;;;;;5.33;3.70;;;3.10;98.20;;;;;;5000844;28;20466;-77
2022/12/03 03:26:50;;;;;;;1.70;1.50;;;3.10;98.20;;;;;;4999787;28;20514;-77
2022/12/03 03:29:17;;;;;;;1.60;1.37;;;3.10;98.20;;;;;;5003294;28;20818;-76
2022/12/03 03:31:46;;;;;;;1.70;1.53;;;3.10;98.20;;;;;;4995606;28;20482;-78
2022/12/03 03:34:15;;;;;;;1.67;1.40;;;3.10;98.20;;;;;;5003563;28;20465;-76
2022/12/03 03:36:42;;;;;;;1.70;1.50;;;3.00;98.20;;;;;;4998527;28;20491;-77
2022/12/03 03:39:09;;;;;;;1.70;1.47;;;3.00;98.20;;;;;;4999895;28;20485;-77
2022/12/03 03:41:37;;;;;;;1.70;1.40;;;3.10;98.20;;;;;;4995070;28;20856;-77
2022/12/03 03:44:05;;;;;;;1.70;1.50;;;3.00;98.20;;;;;;5004308;28;20913;-77
2022/12/03 03:46:33;;;;;;;1.63;1.40;;;3.00;98.20;;;;;;4992893;28;20493;-78
2022/12/03 03:49:00;;;;;;;1.70;1.40;;;3.00;98.20;;;;;;5007183;28;20464;-77
2022/12/03 03:51:28;;;;;;;1.70;1.50;;;3.00;98.20;;;;;;4991495;28;20492;-77
2022/12/03 03:53:55;;;;;;;1.67;1.40;;;3.00;98.20;;;;;;5007548;28;20866;-77
2022/12/03 03:56:22;;;;;;;1.70;1.50;;;3.00;98.20;;;;;;4988957;28;20592;-78
2022/12/03 03:58:49;;;;;;;1.70;1.40;;;3.00;98.20;;;;;;5007842;28;20481;-77
2022/12/03 04:01:17;;;;;;;1.67;1.50;;;3.00;98.20;;;;;;4986896;28;20469;-77
2022/12/03 04:03:44;;;;;;;2.77;2.57;;;3.00;98.20;;;;;;5010088;28;20477;-78
2022/12/03 04:06:11;;;;;;;1.63;1.50;;;3.00;98.20;;;;;;4986114;28;20474;-77
2022/12/03 04:08:39;;;;;;;1.60;1.40;;;3.00;98.20;;;;;;5013804;28;20469;-77
2022/12/03 04:13:50;;;;;;;1.60;1.40;;;3.00;98.20;;;;;;5006910;28;20599;-77
2022/12/03 04:16:17;;;;;;;1.67;1.43;;;3.00;98.20;;;;;;4986364;28;20490;-77
2022/12/03 04:18:44;;;;;;;1.70;1.50;;;3.00;98.20;;;;;;5010790;28;20488;-79
2022/12/03 04:23:57;;;;;;;1.63;1.40;;;3.00;98.20;;;;;;5006587;28;20452;-76
2022/12/03 04:29:08;;;;;;;1.63;1.40;;;3.00;98.20;;;;;;4998075;28;20817;-76
2022/12/03 04:37:03;;;;;;;1.70;1.50;;;3.00;98.20;;;;;;4995048;28;20487;-76
2022/12/03 04:39:32;;;;;;;1.80;1.40;;;3.00;98.20;;;;;;5000270;28;20859;-77
2022/12/03 04:41:58;;;;;;;1.70;1.57;;;3.00;98.20;;;;;;4996045;28;20483;-77
2022/12/03 04:44:35;;;;;;;1.70;1.60;;;3.00;98.20;;;;;;4998360;28;20465;-78
2022/12/03 04:47:04;;;;;;;1.60;1.40;;;2.90;98.20;;;;;;4995885;28;20476;-77
2022/12/03 04:49:32;;;;;;;1.70;1.60;;;2.90;98.20;;;;;;5000140;28;20899;-77
2022/12/03 04:51:59;;;;;;;1.67;1.50;;;2.90;98.20;;;;;;4990237;28;20487;-78
2022/12/03 04:54:26;;;;;;;1.63;1.37;;;2.90;98.20;;;;;;4998936;28;20465;-78
2022/12/03 04:56:54;;;;;;;1.60;1.40;;;2.90;98.20;;;;;;4992498;28;20491;-76
2022/12/03 04:59:21;;;;;;;1.70;1.50;;;2.90;98.20;;;;;;4993026;28;21374;-75
2022/12/03 05:01:48;;;;;;;1.70;1.40;;;2.90;98.20;;;;;;4995652;28;20837;-76
2022/12/03 05:04:15;;;;;;;1.70;1.50;;;2.90;98.20;;;;;;5005372;28;20860;-76
2022/12/03 05:06:42;;;;;;;1.60;1.40;;;2.90;98.20;;;;;;4993926;28;20486;-77
2022/12/03 05:09:10;;;;;;;1.60;1.33;;;2.90;98.20;;;;;;5007080;28;20465;-76
2022/12/03 05:11:36;;;;;;;1.67;1.43;;;2.90;98.20;;;;;;4992598;28;20534;-76
2022/12/03 05:14:05;;;;;;;3.00;2.80;;;2.90;98.20;;;;;;5005577;28;20469;-76
2022/12/03 05:16:32;;;;;;;1.70;1.53;;;2.90;98.20;;;;;;4995688;28;21198;-76
2022/12/03 05:18:59;;;;;;;1.70;1.50;;;2.90;98.20;;;;;;5010549;28;21052;-75
2022/12/03 05:21:25;;;;;;;2.27;2.07;;;2.90;98.20;;;;;;4989777;28;20999;-76
2022/12/03 05:23:52;;;;;;;1.60;1.30;;;2.80;98.20;;;;;;5013553;28;20460;-76
2022/12/03 05:26:19;;;;;;;1.63;1.50;;;2.90;98.20;;;;;;4990900;28;20954;-76
2022/12/03 05:28:46;;;;;;;1.67;1.50;;;2.90;98.20;;;;;;5012534;28;20457;-75
2022/12/03 05:31:14;;;;;;;1.70;1.50;;;2.80;98.20;;;;;;4987707;28;20470;-76
2022/12/03 05:33:41;;;;;;;1.73;1.63;;;2.80;98.20;;;;;;5013243;28;20815;-76
2022/12/03 05:36:08;;;;;;;1.70;1.50;;;2.80;98.20;;;;;;4984054;28;20492;-76
2022/12/03 05:38:35;;;;;;;1.60;1.40;;;2.80;98.20;;;;;;5014134;28;20492;-76
2022/12/03 05:42:52;;;;;;;1.70;1.60;;;2.80;98.20;;;;;;4983756;28;20468;-76
2022/12/03 05:43:48;;;;;;;1.70;1.50;;;2.80;98.20;;;;;;5008531;28;20512;-76
2022/12/03 05:46:16;;;;;;;1.60;1.40;;;2.80;98.20;;;;;;4987142;28;20517;-76
2022/12/03 05:48:43;;;;;;;1.70;1.50;;;2.80;98.20;;;;;;5011572;28;20212;-76
2022/12/03 05:51:10;;;;;;;1.63;1.40;;;2.80;98.20;;;;;;4987588;28;20478;-76
2022/12/03 05:53:36;;;;;;;1.70;1.50;;;2.80;98.20;;;;;;5013515;28;20548;-76
2022/12/03 05:56:03;;;;;;;1.70;1.50;;;2.80;98.20;;;;;;4984198;28;20894;-76
2022/12/03 05:58:30;;;;;;;1.67;1.47;;;2.80;98.20;;;;;;5014728;28;20536;-76
2022/12/03 06:00:57;;;;;;;3.30;3.10;;;2.80;98.20;;;;;;4980783;28;20461;-76
2022/12/03 06:03:25;;;;;;;1.60;1.40;;;2.80;98.20;;;;;;5015465;28;20471;-76
2022/12/03 06:05:52;;;;;;;1.70;1.50;;;2.80;98.20;;;;;;4981467;28;20543;-76
2022/12/03 06:08:19;;;;;;;1.70;1.50;;;2.70;98.20;;;;;;5016053;28;20457;-76
2022/12/03 06:10:45;;;;;;;1.70;1.50;;;2.70;98.20;;;;;;4988845;28;20480;-77
2022/12/03 06:13:12;;;;;;;1.63;1.50;;;2.70;98.20;;;;;;5009314;28;20484;-76
2022/12/03 06:15:39;;;;;;;1.67;1.50;;;2.70;98.20;;;;;;4989310;28;20472;-76
2022/12/03 06:18:06;;;;;;;7.60;4.43;;;2.70;98.20;;;;;;5011671;28;20530;-76
2022/12/03 06:20:34;;;;;;;1.67;1.40;;;2.70;98.20;;;;;;4988811;28;20529;-76
2022/12/03 06:23:00;;;;;;;2.07;1.90;;;2.70;98.20;;;;;;5009593;28;20772;-76
2022/12/03 06:25:27;;;;;;;1.70;1.50;;;2.70;98.20;;;;;;4991059;28;20456;-77
2022/12/03 06:27:54;;;;;;;1.70;1.60;;;2.70;98.20;;;;;;5011461;28;20487;-76
2022/12/03 06:30:21;;;;;;;1.70;1.50;;;2.60;98.20;;;;;;4988611;28;20457;-76
2022/12/03 06:32:48;;;;;;;1.67;1.50;;;2.60;98.20;;;;;;5015124;28;20487;-77
2022/12/03 06:35:15;;;;;;;1.67;1.40;;;2.60;98.20;;;;;;4988073;28;20461;-76
2022/12/03 06:37:43;;;;;;;1.70;1.50;;;2.60;98.20;;;;;;4983019;28;20492;-77
2022/12/03 06:40:10;;;;;;;1.70;1.50;;;2.50;98.20;;;;;;4988967;28;20480;-76
2022/12/03 06:42:37;;;;;;;1.67;1.50;;;2.50;98.20;;;;;;5005108;28;20491;-76
2022/12/03 06:45:05;;;;;;;1.70;1.60;;;2.40;98.20;;;;;;4991507;28;20465;-76
2022/12/03 06:47:32;;;;;;;4.40;4.03;;;2.40;98.20;;;;;;5005153;28;20514;-77
2022/12/03 06:49:58;;;;;;;1.70;1.50;;;2.40;98.20;;;;;;4990854;28;21029;-76
2022/12/03 06:52:25;;;;;;;1.70;1.50;;;2.30;98.20;;;;;;5003826;28;20917;-77
2022/12/03 06:54:53;;;;;;;1.70;1.53;;;2.30;98.20;;;;;;4991463;28;20982;-77
2022/12/03 06:57:20;;;;;;;1.67;1.50;;;2.30;98.20;;;;;;5002543;28;20483;-76
2022/12/03 06:59:47;;;;;;;1.70;1.50;;;2.20;98.20;;;;;;4993862;28;20492;-76
2022/12/03 07:02:14;;;;;;;1.70;1.40;;;2.30;98.20;;;;;;4997700;28;21059;-76
2022/12/03 07:04:40;;;;;;;3.20;3.00;;;2.20;98.20;;;;;;4997283;28;20493;-77
2022/12/03 07:07:07;;;;;;;1.70;1.50;;;2.20;98.20;;;;;;4997763;28;20496;-77
2022/12/03 07:09:34;;;;;;;1.70;1.60;;;2.20;98.20;;;;;;4999185;28;20541;-77
2022/12/03 07:12:02;;;;;;;1.67;1.50;;;2.30;98.20;;;;;;4996090;28;20490;-77
2022/12/03 07:14:29;;;;;;;1.70;1.60;;;2.30;98.20;;;;;;4997830;28;20457;-77
2022/12/03 07:16:55;;;;;;;1.70;1.60;;;2.20;98.20;;;;;;5000083;28;20491;-77
2022/12/03 07:19:22;;;;;;;1.70;1.60;;;2.20;98.20;;;;;;5003428;28;20489;-77
2022/12/03 07:21:49;;;;;;;1.70;1.60;;;2.20;98.20;;;;;;4997392;28;20870;-77
2022/12/03 07:24:16;;;;;;;1.80;1.70;;;2.30;98.20;;;;;;5005208;28;20465;-77
2022/12/03 07:26:43;;;;;;;1.70;1.50;;;2.30;98.20;;;;;;4993106;28;20475;-77
2022/12/03 07:29:11;;;;;;;1.67;1.50;;;2.30;98.20;;;;;;5005580;28;20457;-78
2022/12/03 07:31:38;;;;;;;1.70;1.60;;;2.20;98.20;;;;;;4984187;28;20485;-76
2022/12/03 07:34:05;;;;;;;1.70;1.50;;;2.30;98.20;;;;;;4993127;28;20541;-77
2022/12/03 07:36:32;;;;;;;1.67;1.53;;;2.30;98.20;;;;;;4980102;28;20886;-77
2022/12/03 07:38:58;;;;;;;1.80;1.70;;;2.30;98.20;;;;;;4991102;28;20489;-77
2022/12/03 07:41:25;;;;;;;1.63;1.50;;;2.30;98.20;;;;;;4986938;28;21089;-77
2022/12/03 07:43:52;;;;;;;2.53;2.33;;;2.30;98.20;;;;;;5006778;28;20461;-77
2022/12/03 07:46:20;;;;;;;1.70;1.50;;;2.30;98.20;;;;;;4987061;28;20540;-77
2022/12/03 07:48:47;;;;;;;3.53;3.33;;;2.30;98.20;;;;;;5011676;28;20461;-77
2022/12/03 07:51:13;;;;;;;1.70;1.60;;;2.30;98.20;;;;;;4980044;28;20518;-77
2022/12/03 07:53:40;;;;;;;1.70;1.50;;;2.30;98.20;;;;;;4990140;28;20465;-77
2022/12/03 07:56:08;;;;;;;1.70;1.50;;;2.30;98.20;;;;;;4985015;28;20947;-77
2022/12/03 07:58:34;;;;;;;1.70;1.50;;;2.30;98.20;;;;;;5014804;28;20985;-78
2022/12/03 08:01:01;;;;;;;1.63;1.43;;;2.30;98.20;;;;;;4982852;28;20576;-77
2022/12/03 08:03:29;;;;;;;1.60;1.40;;;2.30;98.20;;;;;;5015346;28;20465;-76
2022/12/03 08:05:56;;;;;;;1.63;1.50;;;2.40;98.20;;;;;;4981315;28;20493;-78
2022/12/03 08:08:23;;;;;;;1.63;1.40;;;2.40;98.20;;;;;;5018452;28;20457;-81
2022/12/03 08:10:50;;;;;;;1.63;1.50;;;2.40;98.20;;;;;;4979793;28;20472;-79
2022/12/03 08:13:18;;;;;;;1.70;1.50;;;2.40;98.20;;;;;;5017048;28;20464;-77
2022/12/03 08:15:45;;;;;;;1.70;1.60;;;2.40;98.20;;;;;;4987957;28;20461;-77
2022/12/03 08:18:15;;;;;;;1.70;1.50;;;2.50;98.20;;;;;;5009418;28;20473;-77
2022/12/03 08:20:45;;;;;;;1.80;1.70;;;2.50;98.20;;;;;;4986869;28;20489;-77
2022/12/03 08:23:15;;;;;;;1.63;1.50;;;2.60;98.20;;;;;;5009482;28;20484;-77
2022/12/03 08:25:42;;;;;;;1.70;1.50;;;2.60;98.20;;;;;;4986459;28;20475;-77
2022/12/03 08:28:14;;;;;;;1.63;1.50;;;2.60;98.20;;;;;;4988842;28;20481;-79
2022/12/03 08:30:42;;;;;;;9.70;9.00;;;2.70;98.20;;;;;;4987029;28;20464;-77
2022/12/03 08:33:18;;;;;;;1.70;1.50;;;2.70;98.20;;;;;;5008098;28;20485;-77
2022/12/03 08:35:50;;;;;;;1.70;1.50;;;2.70;98.20;;;;;;4985113;28;20497;-78
2022/12/03 08:38:19;;;;;;;1.70;1.60;;;2.70;98.20;;;;;;4976029;28;20477;-77
2022/12/03 08:40:49;;;;;;;1.70;1.50;;;2.80;98.20;;;;;;4986137;28;20496;-78
2022/12/03 08:43:21;;;;;;;1.70;1.60;;;2.80;98.20;;;;;;4977391;28;20488;-77
2022/12/03 08:45:49;;;;;;;1.70;1.50;;;2.80;98.20;;;;;;4981718;28;20477;-78
2022/12/03 08:48:27;;;;;;;1.67;1.43;;;2.80;98.20;;;;;;4996863;28;20473;-76
2022/12/03 08:50:57;;;;;;;1.60;1.40;;;2.80;98.20;;;;;;4971620;28;20568;-75
2022/12/03 08:53:36;;;;;;;1.67;1.50;;;2.80;98.20;;;;;;5014452;28;20461;-75
2022/12/03 08:56:22;;;;;;;1.67;1.50;;;2.80;98.20;;;;;;4977307;28;20487;-78
2022/12/03 08:58:51;;;;;;;1.67;1.40;;;2.70;98.20;;;;;;5007028;28;20469;-78
2022/12/03 09:01:31;;;;;;;1.63;1.50;;;2.70;98.20;;;;;;4982289;28;20471;-78
2022/12/03 09:04:04;;;;;;;1.60;1.40;;;2.70;98.20;;;;;;5003626;28;20461;-78
2022/12/03 09:06:33;;;;;;;1.70;1.50;;;2.70;98.20;;;;;;4984679;28;20770;-77
2022/12/03 09:09:00;;;;;;;1.67;1.40;;;2.80;98.20;;;;;;5002759;28;20475;-78
2022/12/03 09:11:26;;;;;;;1.70;1.40;;;2.80;98.20;;;;;;4984869;28;20560;-78
2022/12/03 09:13:53;;;;;;;1.63;1.40;;;2.80;98.20;;;;;;5003351;28;20962;-78
2022/12/03 09:16:20;;;;;;;1.70;1.40;;;2.80;98.20;;;;;;4980253;28;20569;-78
2022/12/03 09:18:47;;;;;;;1.63;1.40;;;2.80;98.20;;;;;;5008316;28;20472;-77
2022/12/03 09:21:14;;;;;;;1.67;1.40;;;2.80;98.20;;;;;;4978697;28;20474;-78
2022/12/03 09:23:42;;;;;;;1.60;1.40;;;2.90;98.20;;;;;;5010114;28;20783;-78
2022/12/03 09:26:09;;;;;;;1.60;1.50;;;2.90;98.20;;;;;;4981076;28;20818;-76
2022/12/03 09:28:36;;;;;;;1.63;1.40;;;3.00;98.20;;;;;;4994243;28;20551;-76
2022/12/03 09:31:03;;;;;;;1.67;1.50;;;3.00;98.20;;;;;;4981225;28;20461;-76
2022/12/03 09:33:31;;;;;;;1.67;1.40;;;3.10;98.20;;;;;;5013701;28;20465;-76
2022/12/03 09:35:58;;;;;;;1.60;1.40;;;3.10;98.20;;;;;;4978973;28;21059;-76
2022/12/03 09:38:25;;;;;;;1.70;1.57;;;3.10;98.20;;;;;;5016819;28;20462;-76
2022/12/03 09:40:54;;;;;;;1.70;1.50;;;3.10;98.20;;;;;;4978624;28;20880;-77
2022/12/03 09:43:21;;;;;;;1.70;1.50;;;3.10;98.20;;;;;;5016554;28;20467;-76
2022/12/03 09:45:48;;;;;;;1.67;1.47;;;3.20;98.20;;;;;;4987008;28;20477;-76
2022/12/03 09:48:18;;;;;;;1.70;1.47;;;3.20;98.20;;;;;;5017729;28;20535;-77
2022/12/03 09:50:46;;;;;;;1.70;1.40;;;3.30;98.20;;;;;;4987074;28;20885;-77
2022/12/03 09:53:16;;;;;;;1.67;1.40;;;3.30;98.20;;;;;;5008112;28;20477;-77
2022/12/03 09:55:45;;;;;;;1.63;1.40;;;3.40;98.20;;;;;;4986729;28;20457;-76
2022/12/03 09:58:15;;;;;;;1.67;1.40;;;3.40;98.20;;;;;;5005614;28;21089;-76
2022/12/03 10:00:46;;;;;;;1.63;1.37;;;3.50;98.20;;;;;;4986442;28;21135;-76
2022/12/03 10:03:17;;;;;;;1.67;1.33;;;3.50;98.20;;;;;;4974863;28;20529;-77
2022/12/03 10:05:44;;;;;;;4.67;4.37;;;3.50;98.20;;;;;;4987003;28;20584;-77
2022/12/03 10:08:13;;;;;;;1.67;1.40;;;3.60;98.20;;;;;;5007320;28;20535;-77
2022/12/03 10:10:43;;;;;;;1.63;1.40;;;3.60;98.20;;;;;;4987425;28;20464;-77
2022/12/03 10:13:16;;;;;;;1.63;1.40;;;3.60;98.20;;;;;;5007739;28;20481;-77
2022/12/03 10:15:43;;;;;;;1.63;1.40;;;3.60;98.20;;;;;;4986248;28;20469;-76
2022/12/03 10:18:17;;;;;;;1.63;1.37;;;3.60;98.20;;;;;;5007936;28;20477;-77
2022/12/03 10:20:44;;;;;;;1.60;1.40;;;3.60;98.20;;;;;;4986277;28;20499;-77
2022/12/03 10:23:20;;;;;;;1.70;1.50;;;3.60;98.20;;;;;;5008982;28;20563;-77
2022/12/03 10:25:56;;;;;;;1.70;1.60;;;3.60;98.20;;;;;;4984895;28;20845;-77
2022/12/03 10:28:32;;;;;;;1.67;1.40;;;3.70;98.20;;;;;;5015197;28;20468;-77
2022/12/03 10:31:00;;;;;;;1.67;1.40;;;3.70;98.20;;;;;;4979788;28;20946;-77
2022/12/03 10:33:36;;;;;;;1.70;1.40;;;3.60;98.20;;;;;;5014816;28;20465;-77
2022/12/03 10:36:18;;;;;;;1.67;1.40;;;3.60;98.20;;;;;;4979958;28;20759;-77
2022/12/03 10:38:45;;;;;;;1.67;1.40;;;3.70;98.20;;;;;;5008723;28;20966;-77
2022/12/03 10:41:23;;;;;;;1.67;1.40;;;3.70;98.20;;;;;;4983017;28;20474;-77
2022/12/03 10:43:52;;;;;;;1.60;1.40;;;3.70;98.20;;;;;;5007662;28;20471;-77
2022/12/03 10:46:20;;;;;;;1.70;1.50;;;3.70;98.20;;;;;;4978087;28;20483;-76
2022/12/03 10:49:09;;;;;;;1.70;1.50;;;3.80;98.20;;;;;;4990121;28;20457;-77
2022/12/03 10:51:37;;;;;;;1.70;1.40;;;3.80;98.20;;;;;;4988598;28;20498;-77
2022/12/03 10:54:11;;;;;;;1.60;1.40;;;3.90;98.20;;;;;;5004266;28;20492;-77
2022/12/03 10:56:38;;;;;;;1.70;1.40;;;3.90;98.20;;;;;;4991235;28;20490;-77
2022/12/03 10:59:09;;;;;;;1.70;1.47;;;4.00;98.20;;;;;;5003354;28;20457;-77
2022/12/03 11:01:35;;;;;;;1.60;1.30;;;3.90;98.20;;;;;;4985503;28;20554;-77
2022/12/03 11:04:05;;;;;;;1.63;1.30;;;4.00;98.20;;;;;;4998307;28;20465;-77
2022/12/03 11:06:32;;;;;;;1.63;1.40;;;4.00;98.20;;;;;;4980689;28;20477;-77
2022/12/03 11:08:59;;;;;;;1.70;1.40;;;4.10;98.20;;;;;;5001752;28;20476;-77
2022/12/03 11:11:28;;;;;;;1.60;1.40;;;4.10;98.20;;;;;;4981472;28;20491;-77
2022/12/03 11:13:57;;;;;;;1.70;1.40;;;4.20;98.20;;;;;;5002356;28;20862;-77
2022/12/03 11:17:06;;;;;;;1.63;1.40;;;4.20;98.20;;;;;;4981125;28;20510;-77
2022/12/03 11:19:49;;;;;;;1.63;1.40;;;4.20;98.20;;;;;;4997637;28;20547;-77
2022/12/03 11:22:27;;;;;;;1.67;1.40;;;4.30;98.20;;;;;;4996999;28;20482;-76
2022/12/03 11:25:48;;;;;;;1.60;1.40;;;4.30;98.20;;;;;;4984477;28;20479;-76
2022/12/03 11:28:53;;;;;;;1.80;1.47;;;4.40;98.20;;;;;;5003419;28;20484;-76
2022/12/03 11:31:42;;;;;;;1.60;1.30;;;4.40;98.20;;;;;;4978759;28;20634;-77
2022/12/03 11:34:40;;;;;;;1.60;1.30;;;4.40;98.20;;;;;;4992828;28;20480;-76
2022/12/03 11:37:26;;;;;;;1.70;1.40;;;4.40;98.20;;;;;;4991894;28;20483;-77
2022/12/03 11:40:26;;;;;;;1.67;1.30;;;4.40;98.20;;;;;;4989533;28;20499;-77
2022/12/03 11:42:53;;;;;;;1.60;1.30;;;4.40;98.20;;;;;;5001417;28;20487;-76
2022/12/03 11:45:30;;;;;;;1.60;1.30;;;4.40;98.20;;;;;;4980747;28;20604;-77
2022/12/03 11:48:13;;;;;;;1.63;1.30;;;4.40;98.20;;;;;;4984211;28;20484;-77
2022/12/03 11:50:42;;;;;;;1.70;1.40;;;4.30;98.20;;;;;;4979679;28;20962;-76
2022/12/03 11:53:18;;;;;;;1.60;1.30;;;4.30;98.20;;;;;;4980543;28;20547;-77
2022/12/03 11:55:51;;;;;;;1.67;1.30;;;4.30;98.20;;;;;;4979415;28;20460;-77
2022/12/03 11:58:21;;;;;;;1.63;1.30;;;4.30;98.20;;;;;;4970066;28;20620;-77
2022/12/03 12:00:49;;;;;;;1.63;1.40;;;4.30;98.20;;;;;;4980661;28;20493;-75
2022/12/03 12:03:23;;;;;;;1.70;1.40;;;4.20;98.20;;;;;;5011046;28;20465;-76
2022/12/03 12:06:04;;;;;;;1.60;1.40;;;4.20;98.20;;;;;;4974269;28;20996;-77
2022/12/03 12:08:33;;;;;;;1.70;1.40;;;4.30;98.20;;;;;;5008395;28;20468;-76
2022/12/03 12:11:00;;;;;;;1.70;1.40;;;4.30;98.20;;;;;;4972959;28;20460;-76
2022/12/03 12:13:53;;;;;;;1.70;1.40;;;4.30;98.20;;;;;;5009717;28;20483;-77
2022/12/03 12:16:53;;;;;;;1.60;1.30;;;4.30;98.20;;;;;;4978727;28;20593;-77
2022/12/03 12:19:38;;;;;;;3.30;3.10;;;4.30;98.20;;;;;;4995338;28;20778;-76
2022/12/03 12:22:17;;;;;;;3.40;3.20;;;4.30;98.20;;;;;;4991000;28;21065;-76
2022/12/03 12:24:50;;;;;;;4.30;3.93;;;4.30;98.20;;;;;;4988374;28;20475;-77
2022/12/03 12:27:19;;;;;;;1.67;1.30;;;4.30;98.20;;;;;;4978216;28;20494;-76
2022/12/03 12:29:51;;;;;;;1.70;1.50;;;4.20;98.20;;;;;;4981543;28;20460;-77
2022/12/03 12:32:21;;;;;;;1.63;1.40;;;4.30;98.20;;;;;;4994021;28;20490;-76
2022/12/03 12:34:52;;;;;;;1.60;1.40;;;4.30;98.20;;;;;;4986986;28;20475;-76
2022/12/03 12:37:22;;;;;;;1.60;1.40;;;4.20;98.20;;;;;;4997003;28;20966;-77
2022/12/03 12:39:54;;;;;;;1.70;1.30;;;4.20;98.20;;;;;;4990222;28;20457;-77
2022/12/03 12:42:32;;;;;;;1.70;1.50;;;4.20;98.20;;;;;;4994825;28;20919;-77
2022/12/03 12:45:08;;;;;;;1.70;1.50;;;4.10;98.20;;;;;;4986039;28;20588;-77
2022/12/03 12:47:36;;;;;;;1.70;1.60;;;4.10;98.20;;;;;;4997844;28;20486;-77
2022/12/03 12:50:09;;;;;;;1.70;1.50;;;4.10;98.20;;;;;;4983307;28;20485;-77
2022/12/03 12:52:41;;;;;;;1.70;1.40;;;4.10;98.20;;;;;;5000105;28;20973;-78
2022/12/03 12:55:13;;;;;;;1.70;1.40;;;4.10;98.20;;;;;;4980707;28;20463;-77
2022/12/03 12:57:40;;;;;;;1.70;1.40;;;4.00;98.20;;;;;;4995818;28;20499;-77
2022/12/03 13:00:13;;;;;;;1.60;1.40;;;4.00;98.20;;;;;;4983533;28;20503;-77
2022/12/03 13:02:44;;;;;;;1.60;1.30;;;3.90;98.20;;;;;;4999587;28;20482;-77
2022/12/03 13:05:12;;;;;;;1.60;1.30;;;3.90;98.20;;;;;;4981225;28;20484;-78
2022/12/03 13:07:41;;;;;;;1.70;1.30;;;4.00;98.20;;;;;;4998812;28;20483;-77
2022/12/03 13:10:32;;;;;;;1.60;1.30;;;4.00;98.20;;;;;;4982256;28;20523;-77
2022/12/03 13:13:01;;;;;;;1.60;1.30;;;4.00;98.20;;;;;;5001989;28;21284;-77
2022/12/03 13:15:39;;;;;;;1.70;1.50;;;4.00;98.20;;;;;;4985870;28;20927;-77
2022/12/03 13:18:29;;;;;;;1.70;1.40;;;4.00;98.20;;;;;;5004469;28;20482;-77
2022/12/03 13:20:56;;;;;;;1.70;1.50;;;4.10;98.20;;;;;;4974603;28;20852;-77
2022/12/03 13:23:32;;;;;;;1.60;1.30;;;4.10;98.20;;;;;;5011536;28;20914;-77
2022/12/03 13:26:04;;;;;;;1.70;1.40;;;4.00;98.20;;;;;;4974461;28;20492;-77